Time;durP1;ratioP1;P1;durP2;ratioP2;P2;SDS_P1;SDS_P2;PMS_P1;PMS_P2;Temp;Humidity;BMP_temperature;BMP_pressure;BME280_temperature;BME280_humidity;BME280_pressure;Samples;Min_cycle;Max_cycle;Signal;HPM_P1;HPM_P2
2022/12/17 13:06:45;;;;;;;39.00;24.57;;;;;;;11.91;100.00;99452.59;5066015;28;20199;-58
2022/12/17 13:09:31;;;;;;;37.60;24.33;;;;;;;11.99;100.00;99441.00;5063528;28;20219;-59
2022/12/17 13:12:17;;;;;;;37.97;24.30;;;;;;;12.02;100.00;99439.22;5067369;28;20196;-65
2022/12/17 13:14:49;;;;;;;47.93;32.73;;;;;;;11.99;100.00;99432.34;5065584;28;20188;-58
2022/12/17 13:17:30;;;;;;;40.47;25.70;;;;;;;11.97;100.00;99429.81;5064195;28;20196;-59
2022/12/17 13:20:36;;;;;;;44.63;26.87;;;;;;;12.04;100.00;99421.78;5064097;28;20206;-58
2022/12/17 13:23:25;;;;;;;43.30;30.03;;;;;;;11.90;100.00;99428.34;5010842;28;20243;-59
2022/12/17 13:26:13;;;;;;;45.63;31.53;;;;;;;11.89;100.00;99438.78;5005670;28;20202;-63
2022/12/17 13:28:40;;;;;;;55.03;33.17;;;;;;;11.94;100.00;99435.13;5049688;28;20216;-65
2022/12/17 13:31:17;;;;;;;51.80;31.70;;;;;;;11.98;100.00;99448.84;5067929;28;20621;-62
2022/12/17 13:33:50;;;;;;;44.93;31.87;;;;;;;12.06;100.00;99440.81;5067746;28;20217;-58
2022/12/17 13:36:28;;;;;;;46.10;31.10;;;;;;;12.08;100.00;99449.38;5064578;28;20587;-60
2022/12/17 13:39:03;;;;;;;51.27;31.20;;;;;;;12.03;100.00;99457.38;5063723;28;20283;-59
2022/12/17 13:41:32;;;;;;;52.17;30.87;;;;;;;12.13;100.00;99457.88;5062495;28;20721;-59
2022/12/17 13:44:02;;;;;;;46.90;31.37;;;;;;;12.20;100.00;99464.53;5067370;28;20192;-58
2022/12/17 13:46:35;;;;;;;52.80;32.37;;;;;;;12.26;100.00;99466.94;5067702;28;20227;-58
2022/12/17 13:49:04;;;;;;;55.97;33.40;;;;;;;12.33;100.00;99468.41;5067759;28;20590;-58
2022/12/17 13:51:34;;;;;;;48.13;30.47;;;;;;;12.36;100.00;99466.56;5062581;28;20206;-59
2022/12/17 13:54:03;;;;;;;46.40;31.00;;;;;;;12.40;100.00;99461.25;5067514;28;20290;-59
2022/12/17 13:56:32;;;;;;;44.90;30.20;;;;;;;12.39;100.00;99456.94;5062561;28;20741;-60
2022/12/17 13:59:01;;;;;;;47.13;29.20;;;;;;;12.44;100.00;99463.66;5067530;28;20241;-59
2022/12/17 14:01:29;;;;;;;56.73;30.50;;;;;;;12.47;100.00;99465.31;5067678;28;20214;-58
2022/12/17 14:03:57;;;;;;;50.40;30.70;;;;;;;12.49;100.00;99476.50;5067394;28;20195;-60
2022/12/17 14:06:32;;;;;;;45.90;31.10;;;;;;;12.46;100.00;99480.06;5066838;28;20188;-60
2022/12/17 14:09:01;;;;;;;41.50;28.17;;;;;;;12.39;100.00;99480.38;5064489;28;20206;-66
2022/12/17 14:14:23;;;;;;;47.17;31.20;;;;;;;12.36;100.00;99479.56;5062352;28;20241;-65
2022/12/17 14:16:50;;;;;;;66.30;39.47;;;;;;;12.32;100.00;99482.31;5061592;28;20242;-65
2022/12/17 14:19:18;;;;;;;71.70;44.37;;;;;;;12.27;100.00;99487.72;5067708;28;20203;-65
2022/12/17 14:21:44;;;;;;;83.73;49.77;;;;;;;12.27;100.00;99489.47;5067329;28;20226;-58
2022/12/17 14:24:14;;;;;;;59.83;36.37;;;;;;;12.28;100.00;99504.19;5062290;28;20192;-58
2022/12/17 14:26:49;;;;;;;61.60;38.47;;;;;;;12.26;100.00;99512.03;5060541;28;20225;-59
2022/12/17 14:29:22;;;;;;;69.13;43.00;;;;;;;12.20;100.00;99501.81;5062757;28;20219;-58
2022/12/17 14:31:52;;;;;;;62.00;38.53;;;;;;;12.20;100.00;99485.38;5067050;28;20223;-59
2022/12/17 14:34:19;;;;;;;58.17;34.50;;;;;;;12.12;100.00;99483.03;5067297;28;20242;-60
2022/12/17 14:36:47;;;;;;;58.27;36.50;;;;;;;11.95;100.00;99481.06;5068714;28;20216;-58
2022/12/17 14:39:22;;;;;;;59.77;35.53;;;;;;;11.99;100.00;99493.03;5070932;28;20242;-60
2022/12/17 14:44:36;;;;;;;56.33;34.30;;;;;;;12.04;100.00;99508.50;5031935;28;20215;-64
2022/12/17 14:47:17;;;;;;;70.60;41.13;;;;;;;11.73;100.00;99505.22;5047305;28;20224;-58
2022/12/17 14:49:53;;;;;;;67.23;37.63;;;;;;;11.61;100.00;99491.72;5051878;28;20209;-60
2022/12/17 14:52:27;;;;;;;74.10;41.33;;;;;;;11.54;100.00;99500.59;5052256;28;20201;-65
2022/12/17 14:54:55;;;;;;;72.47;42.40;;;;;;;11.58;100.00;99525.63;5051721;28;20200;-64
2022/12/17 14:57:23;;;;;;;74.53;39.60;;;;;;;11.47;100.00;99540.72;5051787;28;20203;-64
2022/12/17 14:59:51;;;;;;;79.33;43.00;;;;;;;11.40;100.00;99540.97;5052296;28;21018;-64
2022/12/17 15:02:25;;;;;;;70.37;39.43;;;;;;;11.40;100.00;99539.19;5051724;28;20610;-64
2022/12/17 15:04:53;;;;;;;72.00;39.40;;;;;;;11.39;100.00;99541.84;5051825;28;20660;-65
2022/12/17 15:07:25;;;;;;;72.40;40.23;;;;;;;11.40;100.00;99565.16;5051749;28;20197;-57
2022/12/17 15:09:53;;;;;;;67.73;38.13;;;;;;;11.38;100.00;99573.94;5051644;28;20197;-59
2022/12/17 15:12:22;;;;;;;66.77;38.83;;;;;;;11.32;100.00;99569.75;5051514;28;20203;-58
2022/12/17 15:14:49;;;;;;;65.43;37.07;;;;;;;11.42;100.00;99578.97;5051273;28;20201;-58
2022/12/17 15:17:16;;;;;;;81.80;46.03;;;;;;;11.45;100.00;99580.63;5051366;28;20196;-59
2022/12/17 15:19:44;;;;;;;75.53;45.43;;;;;;;11.45;100.00;99578.88;5051396;28;20197;-65
2022/12/17 15:22:16;;;;;;;76.17;43.10;;;;;;;11.46;100.00;99585.78;5051629;28;20221;-59
2022/12/17 15:24:44;;;;;;;84.60;44.57;;;;;;;11.47;100.00;99603.09;5034473;28;20279;-58
2022/12/17 15:27:13;;;;;;;74.53;43.10;;;;;;;11.48;100.00;99625.56;5053082;28;20227;-58
2022/12/17 15:29:41;;;;;;;73.50;41.90;;;;;;;11.52;100.00;99644.50;5070679;28;20223;-58
2022/12/17 15:32:12;;;;;;;62.43;37.90;;;;;;;11.50;100.00;99654.97;5070931;28;21283;-59
2022/12/17 15:34:39;;;;;;;61.50;37.40;;;;;;;11.54;100.00;99656.56;5070383;28;20281;-59
2022/12/17 15:37:06;;;;;;;66.93;38.77;;;;;;;11.57;100.00;99671.22;5070406;28;20196;-58
2022/12/17 15:39:33;;;;;;;76.27;38.73;;;;;;;11.57;100.00;99677.28;5071096;28;20195;-59
2022/12/17 15:44:45;;;;;;;75.03;40.80;;;;;;;11.69;100.00;99683.00;5069186;28;20200;-58
2022/12/17 15:47:12;;;;;;;74.60;40.80;;;;;;;11.70;100.00;99659.56;5069118;28;20200;-59
2022/12/17 15:49:39;;;;;;;75.27;41.87;;;;;;;11.65;100.00;99670.09;5070399;28;20622;-64
2022/12/17 15:52:06;;;;;;;67.87;41.10;;;;;;;11.77;100.00;99650.69;5069505;28;20201;-65
2022/12/17 15:54:33;;;;;;;88.03;48.00;;;;;;;11.68;100.00;99637.09;5069741;28;20198;-64
2022/12/17 15:57:00;;;;;;;115.83;63.93;;;;;;;11.72;100.00;99610.97;5069926;28;20212;-66
2022/12/17 15:59:27;;;;;;;113.53;58.30;;;;;;;11.65;100.00;99565.25;5063562;28;20225;-66
2022/12/17 16:01:55;;;;;;;83.60;47.20;;;;;;;11.50;100.00;99532.81;5047851;28;20226;-59
2022/12/17 16:04:22;;;;;;;76.20;45.47;;;;;;;11.48;100.00;99516.41;5069377;28;20196;-60
2022/12/17 16:06:49;;;;;;;87.87;47.53;;;;;;;11.51;100.00;99511.09;5060700;28;20236;-59
2022/12/17 16:09:16;;;;;;;97.17;51.50;;;;;;;11.53;100.00;99498.06;5068825;28;20234;-60
2022/12/17 16:11:43;;;;;;;111.77;63.33;;;;;;;11.49;100.00;99535.47;5058638;28;20600;-59
2022/12/17 16:14:10;;;;;;;116.50;62.17;;;;;;;11.35;100.00;99561.88;5030664;28;20231;-61
2022/12/17 16:16:37;;;;;;;102.17;57.83;;;;;;;11.30;100.00;99579.34;5030022;28;20241;-59
2022/12/17 16:19:05;;;;;;;101.60;55.00;;;;;;;11.34;100.00;99585.31;5030222;28;20309;-60
2022/12/17 16:21:32;;;;;;;95.57;54.27;;;;;;;11.31;100.00;99569.81;5030068;28;20225;-59
2022/12/17 16:23:59;;;;;;;143.40;85.47;;;;;;;11.26;100.00;99573.41;5029245;28;20229;-59
2022/12/17 16:26:26;;;;;;;114.37;60.83;;;;;;;11.19;100.00;99552.84;5029857;28;20225;-61
2022/12/17 16:28:53;;;;;;;111.93;63.27;;;;;;;11.29;100.00;99562.06;5029616;28;20231;-60
2022/12/17 16:31:20;;;;;;;115.43;67.73;;;;;;;11.27;100.00;99563.88;5063088;28;20234;-59
2022/12/17 16:33:47;;;;;;;113.93;63.73;;;;;;;11.22;100.00;99565.75;5069498;28;20263;-58
2022/12/17 16:36:18;;;;;;;119.13;66.33;;;;;;;11.24;100.00;99561.38;5069856;28;20230;-60
2022/12/17 16:38:46;;;;;;;120.37;69.63;;;;;;;11.29;100.00;99568.09;5068620;28;20237;-59
2022/12/17 16:41:14;;;;;;;113.37;68.10;;;;;;;11.24;100.00;99548.38;5067518;28;20224;-61
2022/12/17 16:43:41;;;;;;;151.50;92.63;;;;;;;11.30;100.00;99566.34;5068490;28;20299;-59
2022/12/17 16:46:25;;;;;;;135.53;82.57;;;;;;;11.31;100.00;99573.25;5068950;28;20211;-66
2022/12/17 16:48:52;;;;;;;96.77;54.17;;;;;;;11.34;100.00;99577.50;5069113;28;20200;-67
2022/12/17 16:51:22;;;;;;;89.93;52.57;;;;;;;11.38;100.00;99577.38;5069343;28;20243;-67
2022/12/17 16:53:49;;;;;;;92.07;53.53;;;;;;;11.35;100.00;99590.47;5054232;28;20221;-67
2022/12/17 16:56:17;;;;;;;87.63;49.63;;;;;;;11.34;100.00;99603.50;5029164;28;20229;-59
2022/12/17 16:58:44;;;;;;;106.50;55.77;;;;;;;11.31;100.00;99601.84;5031696;28;20232;-59
2022/12/17 17:01:12;;;;;;;99.43;53.50;;;;;;;11.28;100.00;99601.97;5068300;28;20251;-59
2022/12/17 17:03:40;;;;;;;96.80;54.30;;;;;;;11.25;100.00;99600.28;5068925;28;20234;-61
2022/12/17 17:06:08;;;;;;;91.33;50.47;;;;;;;11.08;100.00;99584.34;5068465;28;20220;-60
2022/12/17 17:08:38;;;;;;;94.43;55.40;;;;;;;11.13;100.00;99607.59;5069264;28;20231;-59
2022/12/17 17:11:09;;;;;;;101.60;54.13;;;;;;;11.08;100.00;99601.66;5069733;28;20592;-59
2022/12/17 17:13:37;;;;;;;94.90;50.00;;;;;;;10.97;100.00;99611.53;5068902;28;20306;-59
2022/12/17 17:16:04;;;;;;;98.33;52.00;;;;;;;10.98;100.00;99608.03;5068444;28;20644;-59
2022/12/17 17:18:33;;;;;;;100.87;52.93;;;;;;;10.87;100.00;99614.38;5068871;28;21027;-60
2022/12/17 17:21:31;;;;;;;97.80;50.63;;;;;;;10.92;100.00;99619.47;5068827;28;20220;-67
2022/12/17 17:24:00;;;;;;;86.90;49.20;;;;;;;10.95;100.00;99623.72;5006875;28;20236;-63
2022/12/17 17:26:28;;;;;;;89.37;45.93;;;;;;;10.91;100.00;99623.81;5049981;28;20226;-67
2022/12/17 17:28:55;;;;;;;78.70;45.20;;;;;;;10.91;100.00;99633.34;5037903;28;20235;-68
2022/12/17 17:31:23;;;;;;;89.40;47.53;;;;;;;10.85;100.00;99628.31;5044023;28;20219;-67
2022/12/17 17:33:51;;;;;;;83.97;48.67;;;;;;;10.84;100.00;99626.59;5068053;28;20240;-67
2022/12/17 17:36:20;;;;;;;95.37;50.33;;;;;;;10.85;100.00;99647.34;5067692;28;20215;-62
2022/12/17 17:38:48;;;;;;;82.90;46.20;;;;;;;10.82;100.00;99636.19;5067455;28;20239;-61
2022/12/17 17:41:19;;;;;;;86.17;45.07;;;;;;;10.95;100.00;99645.31;5063262;28;20223;-61
2022/12/17 17:43:46;;;;;;;87.00;46.63;;;;;;;10.91;100.00;99634.19;5067968;28;20220;-62
2022/12/17 17:46:15;;;;;;;79.20;40.93;;;;;;;10.88;100.00;99636.00;5063359;28;20627;-66
2022/12/17 17:48:43;;;;;;;73.10;39.33;;;;;;;10.86;100.00;99633.47;5068492;28;20235;-67
2022/12/17 17:51:13;;;;;;;74.07;42.23;;;;;;;10.88;100.00;99643.81;5067518;28;20212;-59
2022/12/17 17:53:41;;;;;;;69.43;40.70;;;;;;;10.85;100.00;99631.75;5067775;28;20216;-59
2022/12/17 17:56:13;;;;;;;86.67;45.23;;;;;;;10.86;100.00;99619.63;5068471;28;20230;-60
2022/12/17 17:58:42;;;;;;;89.20;46.53;;;;;;;10.91;100.00;99639.38;5068516;28;20227;-60
2022/12/17 18:01:11;;;;;;;79.93;44.63;;;;;;;10.86;100.00;99656.81;5068590;28;20285;-60
2022/12/17 18:03:38;;;;;;;75.70;44.27;;;;;;;10.86;100.00;99656.81;5068827;28;20240;-60
2022/12/17 18:06:06;;;;;;;81.80;46.80;;;;;;;10.86;100.00;99662.03;5067647;28;20719;-60
2022/12/17 18:08:34;;;;;;;93.47;53.60;;;;;;;10.83;100.00;99651.75;5068325;28;20227;-59
2022/12/17 18:11:02;;;;;;;88.33;52.03;;;;;;;10.90;100.00;99642.88;5066758;28;20238;-59
2022/12/17 18:16:16;;;;;;;83.07;51.57;;;;;;;10.85;100.00;99667.25;5068990;28;20614;-60
2022/12/17 18:18:43;;;;;;;88.30;51.40;;;;;;;10.75;100.00;99669.25;5072652;28;20192;-59
2022/12/17 18:21:12;;;;;;;89.80;52.83;;;;;;;10.75;100.00;99669.25;5071782;28;20965;-60
2022/12/17 18:23:40;;;;;;;102.67;55.87;;;;;;;10.74;100.00;99664.09;5048389;28;20208;-60
2022/12/17 18:26:08;;;;;;;96.83;56.57;;;;;;;10.76;100.00;99659.72;5043845;28;20259;-59
2022/12/17 18:28:36;;;;;;;91.17;53.77;;;;;;;10.73;100.00;99665.84;5031309;28;20728;-60
2022/12/17 18:31:08;;;;;;;92.43;51.10;;;;;;;10.74;100.00;99675.34;5031667;28;20227;-60
2022/12/17 18:33:41;;;;;;;95.40;54.50;;;;;;;10.74;100.00;99683.13;5032634;28;20606;-60
2022/12/17 18:36:12;;;;;;;106.13;55.27;;;;;;;10.74;100.00;99683.13;5032599;28;20198;-61
2022/12/17 18:38:40;;;;;;;102.23;55.50;;;;;;;10.57;100.00;99669.75;5032354;28;20704;-61
2022/12/17 18:43:22;;;;;;;96.60;57.07;;;;;;;10.65;100.00;99688.56;5032178;28;20197;-61
2022/12/17 18:43:56;;;;;;;105.97;59.93;;;;;;;10.59;100.00;99701.72;5031473;28;20224;-59
2022/12/17 18:46:23;;;;;;;117.90;65.73;;;;;;;10.46;100.00;99700.31;5032296;28;20587;-60
2022/12/17 18:48:52;;;;;;;119.73;67.03;;;;;;;10.39;100.00;99711.72;5031903;28;20288;-59
2022/12/17 18:51:20;;;;;;;133.03;69.83;;;;;;;10.38;100.00;99712.66;5032237;28;20669;-60
2022/12/17 18:53:47;;;;;;;127.20;72.77;;;;;;;10.42;100.00;99716.84;5031903;28;20280;-59
2022/12/17 18:56:14;;;;;;;110.53;60.37;;;;;;;10.41;100.00;99709.94;5032054;28;20207;-61
2022/12/17 18:58:42;;;;;;;110.90;60.83;;;;;;;10.34;100.00;99704.06;5031992;28;20285;-61
2022/12/17 19:01:19;;;;;;;112.33;65.30;;;;;;;10.37;100.00;99698.81;5031873;28;20225;-59
2022/12/17 19:03:46;;;;;;;122.63;67.57;;;;;;;10.42;100.00;99696.09;5031653;28;20232;-61
2022/12/17 19:06:14;;;;;;;122.60;69.70;;;;;;;10.40;100.00;99693.53;5031685;28;20255;-60
2022/12/17 19:08:41;;;;;;;115.27;62.00;;;;;;;10.36;100.00;99698.84;5031763;28;20234;-60
2022/12/17 19:11:10;;;;;;;106.23;57.47;;;;;;;10.32;100.00;99697.22;5031604;28;20194;-60
2022/12/17 19:13:36;;;;;;;98.00;56.87;;;;;;;10.39;100.00;99702.19;5039804;28;20216;-61
2022/12/17 19:16:09;;;;;;;101.03;56.10;;;;;;;10.37;100.00;99704.00;5070986;28;20623;-60
2022/12/17 19:18:37;;;;;;;106.90;57.10;;;;;;;10.37;100.00;99716.13;5058364;28;20232;-60
2022/12/17 19:21:05;;;;;;;113.00;65.27;;;;;;;10.37;100.00;99713.53;5057770;28;20224;-61
2022/12/17 19:23:34;;;;;;;116.17;62.07;;;;;;;10.34;100.00;99703.22;5060702;28;20636;-60
2022/12/17 19:26:09;;;;;;;118.97;65.03;;;;;;;10.46;100.00;99740.09;5062772;28;20373;-60
2022/12/17 19:28:36;;;;;;;122.07;72.60;;;;;;;10.49;100.00;99754.75;5064080;28;20234;-60
2022/12/17 19:31:03;;;;;;;127.97;75.47;;;;;;;10.53;100.00;99759.81;5070752;28;20224;-60
2022/12/17 19:33:30;;;;;;;113.10;65.30;;;;;;;10.55;100.00;99767.56;5070660;28;20216;-60
2022/12/17 19:36:02;;;;;;;109.37;61.13;;;;;;;10.57;100.00;99768.38;5070769;28;20377;-61
2022/12/17 19:38:28;;;;;;;100.30;56.73;;;;;;;10.55;100.00;99773.59;5070196;28;20234;-60
2022/12/17 19:41:01;;;;;;;100.00;56.33;;;;;;;10.60;100.00;99783.88;5070804;28;20224;-61
2022/12/17 19:43:28;;;;;;;94.67;55.03;;;;;;;10.59;100.00;99784.78;5050709;28;20224;-59
2022/12/17 19:46:01;;;;;;;90.57;53.30;;;;;;;10.52;100.00;99781.47;5070589;28;20223;-59
2022/12/17 19:48:29;;;;;;;88.40;54.10;;;;;;;10.53;100.00;99777.97;5070320;28;20220;-61
2022/12/17 19:50:56;;;;;;;93.47;50.20;;;;;;;10.51;100.00;99778.91;5070091;28;20315;-59
2022/12/17 19:53:26;;;;;;;98.87;53.77;;;;;;;10.45;100.00;99777.31;5070234;28;20223;-61
2022/12/17 19:55:54;;;;;;;96.20;52.07;;;;;;;10.50;100.00;99797.94;5070600;28;20224;-60
2022/12/17 19:58:23;;;;;;;90.37;52.47;;;;;;;10.54;100.00;99808.22;5069787;28;20227;-61
2022/12/17 20:00:51;;;;;;;92.13;52.77;;;;;;;10.59;100.00;99817.66;5070511;28;20228;-60
2022/12/17 20:03:18;;;;;;;98.70;53.67;;;;;;;10.58;100.00;99822.00;5070233;28;20309;-60
2022/12/17 20:05:46;;;;;;;97.63;55.83;;;;;;;10.59;100.00;99830.66;5067013;28;20219;-61
2022/12/17 20:08:13;;;;;;;101.43;57.07;;;;;;;10.61;100.00;99821.91;5045615;28;21056;-59
2022/12/17 20:10:40;;;;;;;91.97;55.07;;;;;;;10.60;100.00;99819.38;5062439;28;20310;-59
2022/12/17 20:13:07;;;;;;;102.87;57.93;;;;;;;10.50;100.00;99790.16;5068593;28;20219;-58
2022/12/17 20:15:35;;;;;;;88.60;49.90;;;;;;;10.56;100.00;99774.47;5069415;28;20320;-59
2022/12/17 20:18:02;;;;;;;97.83;51.43;;;;;;;10.66;100.00;99788.06;5069305;28;20215;-59
2022/12/17 20:20:29;;;;;;;96.33;52.53;;;;;;;10.83;100.00;99797.16;5069517;28;20247;-60
2022/12/17 20:22:56;;;;;;;102.03;53.37;;;;;;;10.93;100.00;99769.19;5063937;28;20805;-60
2022/12/17 20:25:23;;;;;;;104.97;56.90;;;;;;;10.90;100.00;99738.97;5069450;28;20613;-60
2022/12/17 20:27:50;;;;;;;104.70;55.27;;;;;;;10.67;100.00;99675.56;5068520;28;20220;-60
2022/12/17 20:30:17;;;;;;;96.50;52.93;;;;;;;10.73;100.00;99691.81;5069814;28;20218;-60
2022/12/17 20:32:45;;;;;;;100.77;53.53;;;;;;;10.81;100.00;99721.03;5069253;28;20223;-60
2022/12/17 20:35:12;;;;;;;106.80;53.57;;;;;;;10.81;100.00;99770.38;5068052;28;20224;-61
2022/12/17 20:37:39;;;;;;;107.73;58.77;;;;;;;10.67;100.00;99795.81;5038154;28;20218;-61
2022/12/17 20:40:08;;;;;;;107.73;57.27;;;;;;;10.57;100.00;99793.47;5034526;28;20256;-60
2022/12/17 20:42:35;;;;;;;101.00;54.07;;;;;;;10.64;100.00;99797.63;5029090;28;20221;-60
2022/12/17 20:45:02;;;;;;;99.60;52.17;;;;;;;10.64;100.00;99810.59;5029277;28;20241;-60
2022/12/17 20:47:29;;;;;;;94.30;52.60;;;;;;;10.67;100.00;99811.38;5029178;28;20749;-60
2022/12/17 20:49:57;;;;;;;92.57;50.53;;;;;;;10.73;100.00;99813.81;5029655;28;20225;-60
2022/12/17 20:52:24;;;;;;;88.23;48.63;;;;;;;10.74;100.00;99812.94;5029647;28;20224;-61
2022/12/17 20:54:51;;;;;;;82.80;47.87;;;;;;;10.77;100.00;99822.41;5029231;28;20313;-59
2022/12/17 20:57:18;;;;;;;79.60;47.00;;;;;;;10.81;100.00;99818.84;5035262;28;20674;-60
2022/12/17 20:59:45;;;;;;;76.53;45.13;;;;;;;10.77;100.00;99818.06;5069155;28;20315;-61
2022/12/17 21:02:12;;;;;;;77.47;45.63;;;;;;;10.73;100.00;99811.22;5069254;28;20219;-61
2022/12/17 21:04:39;;;;;;;75.53;44.37;;;;;;;10.81;100.00;99811.06;5068971;28;20227;-60
2022/12/17 21:07:07;;;;;;;71.97;42.43;;;;;;;10.85;100.00;99821.31;5068787;28;20715;-59
2022/12/17 21:09:34;;;;;;;68.97;41.90;;;;;;;10.87;100.00;99836.84;5068607;28;20681;-59
2022/12/17 21:12:01;;;;;;;71.47;43.23;;;;;;;10.96;100.00;99840.97;5068428;28;20226;-59
2022/12/17 21:14:28;;;;;;;71.30;42.93;;;;;;;10.89;100.00;99848.91;5069062;28;20269;-60
2022/12/17 21:16:55;;;;;;;74.30;44.10;;;;;;;10.78;100.00;99844.88;5069196;28;20240;-60
2022/12/17 21:19:22;;;;;;;78.20;43.33;;;;;;;10.76;100.00;99838.88;5069039;28;20302;-60
2022/12/17 21:21:49;;;;;;;71.33;42.33;;;;;;;10.67;100.00;99852.94;5068963;28;20727;-61
2022/12/17 21:24:17;;;;;;;79.20;45.83;;;;;;;10.67;100.00;99852.06;5068796;28;20786;-60
2022/12/17 21:26:45;;;;;;;72.93;44.07;;;;;;;10.69;100.00;99864.13;5068571;28;20643;-60
2022/12/17 21:29:13;;;;;;;69.67;43.03;;;;;;;10.71;100.00;99869.28;5068107;28;20227;-60
2022/12/17 21:31:42;;;;;;;78.53;44.37;;;;;;;10.72;100.00;99861.44;5068859;28;20310;-60
2022/12/17 21:34:12;;;;;;;69.27;43.60;;;;;;;10.78;100.00;99852.66;5068476;28;20216;-59
2022/12/17 21:36:39;;;;;;;67.97;42.83;;;;;;;10.68;100.00;99854.63;5068814;28;20627;-59
2022/12/17 21:39:08;;;;;;;67.47;39.57;;;;;;;10.52;100.00;99828.16;5068674;28;20222;-59
2022/12/17 21:41:38;;;;;;;64.40;41.63;;;;;;;10.54;100.00;99847.16;5068538;28;20219;-59
2022/12/17 21:44:07;;;;;;;69.63;42.53;;;;;;;10.58;100.00;99862.69;5068669;28;20628;-59
2022/12/17 21:46:34;;;;;;;67.20;40.17;;;;;;;10.51;100.00;99862.81;5072482;28;20220;-60
2022/12/17 21:49:03;;;;;;;74.90;42.13;;;;;;;10.53;100.00;99875.75;5072633;28;20215;-61
2022/12/17 21:51:31;;;;;;;70.83;40.67;;;;;;;10.57;100.00;99861.81;5073179;28;20257;-60
2022/12/17 21:54:00;;;;;;;67.67;41.67;;;;;;;10.59;100.00;99857.44;5072886;28;20639;-61
2022/12/17 21:56:27;;;;;;;66.20;41.07;;;;;;;10.56;100.00;99849.72;5071775;28;20306;-60
2022/12/17 21:58:58;;;;;;;69.60;43.00;;;;;;;10.51;100.00;99860.22;5072279;28;20238;-60
2022/12/17 22:01:27;;;;;;;68.60;41.47;;;;;;;10.44;100.00;99847.41;5072434;28;20226;-60
2022/12/17 22:03:56;;;;;;;64.93;40.83;;;;;;;10.43;100.00;99854.34;5072269;28;20235;-61
2022/12/17 22:06:25;;;;;;;71.73;44.17;;;;;;;10.49;100.00;99858.56;5060100;28;20225;-60
2022/12/17 22:08:52;;;;;;;69.90;43.43;;;;;;;10.50;100.00;99865.44;5051721;28;20204;-60
2022/12/17 22:11:21;;;;;;;73.07;44.33;;;;;;;10.48;100.00;99856.84;5051995;28;20288;-60
2022/12/17 22:14:05;;;;;;;74.40;45.03;;;;;;;10.31;100.00;99838.19;5051215;28;20566;-59
2022/12/17 22:16:37;;;;;;;74.20;44.43;;;;;;;10.37;100.00;99857.09;5060475;28;20739;-59
2022/12/17 22:19:09;;;;;;;69.70;42.70;;;;;;;10.42;100.00;99863.00;5048861;28;20254;-60
2022/12/17 22:21:38;;;;;;;63.43;40.83;;;;;;;10.19;100.00;99845.38;5043107;28;20318;-59
2022/12/17 22:24:06;;;;;;;60.47;38.47;;;;;;;10.35;100.00;99870.97;5044389;28;20704;-59
2022/12/17 22:26:33;;;;;;;65.77;39.07;;;;;;;10.33;100.00;99883.13;5053848;28;20201;-59
2022/12/17 22:29:01;;;;;;;64.43;39.57;;;;;;;10.38;100.00;99881.31;5071279;28;20703;-59
2022/12/17 22:34:15;;;;;;;63.40;40.10;;;;;;;10.39;100.00;99885.56;5067084;28;20199;-59
2022/12/17 22:36:42;;;;;;;58.33;38.60;;;;;;;10.40;100.00;99895.06;5070773;28;20278;-59
2022/12/17 22:39:11;;;;;;;58.23;37.57;;;;;;;10.46;100.00;99898.41;5065859;28;20310;-60
2022/12/17 22:44:23;;;;;;;59.03;37.33;;;;;;;10.50;100.00;99900.03;5052448;28;20631;-58
2022/12/17 22:46:50;;;;;;;61.13;37.77;;;;;;;10.48;100.00;99904.41;5051954;28;20338;-59
2022/12/17 22:49:19;;;;;;;58.40;37.53;;;;;;;10.50;100.00;99893.97;5052067;28;20673;-59
2022/12/17 22:51:46;;;;;;;61.10;39.13;;;;;;;10.51;100.00;99908.66;5051680;28;20196;-58
2022/12/17 22:54:14;;;;;;;64.93;39.17;;;;;;;10.50;100.00;99901.75;5051908;28;20195;-59
2022/12/17 22:56:43;;;;;;;61.10;39.77;;;;;;;10.55;100.00;99915.50;5050888;28;20228;-58
2022/12/17 22:59:14;;;;;;;59.97;38.07;;;;;;;10.58;100.00;99925.81;5051760;28;20685;-60
2022/12/17 23:01:41;;;;;;;63.50;37.80;;;;;;;10.59;100.00;99924.94;5051872;28;20201;-60
2022/12/17 23:04:11;;;;;;;64.07;39.33;;;;;;;10.65;100.00;99926.53;5051309;28;20216;-61
2022/12/17 23:06:39;;;;;;;64.77;40.27;;;;;;;10.67;100.00;99924.75;5052023;28;20200;-59
2022/12/17 23:09:06;;;;;;;64.77;40.10;;;;;;;10.67;100.00;99920.41;5051794;28;20192;-60
2022/12/17 23:11:33;;;;;;;67.47;40.43;;;;;;;10.69;100.00;99917.78;5051988;28;20586;-60
2022/12/17 23:14:00;;;;;;;64.93;40.30;;;;;;;10.76;100.00;99907.22;5051504;28;20196;-61
2022/12/17 23:16:27;;;;;;;79.60;42.90;;;;;;;10.71;100.00;99906.50;5051259;28;20228;-59
2022/12/17 23:18:54;;;;;;;70.30;42.10;;;;;;;10.67;100.00;99896.19;5051361;28;20199;-61
2022/12/17 23:21:24;;;;;;;64.37;41.27;;;;;;;10.66;100.00;99884.97;5051425;28;20208;-58
2022/12/17 23:23:53;;;;;;;62.60;41.43;;;;;;;10.66;100.00;99890.16;5051409;28;20596;-58
2022/12/17 23:26:22;;;;;;;59.83;37.17;;;;;;;10.60;100.00;99918.00;5051396;28;20201;-58
2022/12/17 23:28:53;;;;;;;59.27;38.77;;;;;;;10.60;100.00;99934.44;5050760;28;20595;-58
2022/12/17 23:31:21;;;;;;;63.07;41.40;;;;;;;10.61;100.00;99940.47;5051255;28;20999;-59
2022/12/17 23:33:48;;;;;;;58.30;39.53;;;;;;;10.68;100.00;99937.72;5050806;28;20287;-60
2022/12/17 23:36:19;;;;;;;56.73;39.13;;;;;;;10.70;100.00;99935.94;5051444;28;20388;-59
2022/12/17 23:38:47;;;;;;;58.80;39.00;;;;;;;10.69;100.00;99933.38;5050966;28;20299;-60
2022/12/17 23:41:20;;;;;;;61.43;39.83;;;;;;;10.79;100.00;99932.28;5050914;28;20287;-59
2022/12/17 23:43:48;;;;;;;63.60;41.60;;;;;;;10.78;100.00;99939.19;5050849;28;20668;-61
2022/12/17 23:46:16;;;;;;;64.13;40.20;;;;;;;10.78;100.00;99939.19;5050822;28;20229;-61
2022/12/17 23:48:45;;;;;;;58.63;39.60;;;;;;;10.72;100.00;99933.31;5051011;28;20203;-61
2022/12/17 23:51:13;;;;;;;66.43;41.77;;;;;;;10.81;100.00;99952.13;5050600;28;20197;-60
2022/12/17 23:53:41;;;;;;;65.17;41.30;;;;;;;10.77;100.00;99958.28;5050794;28;20203;-58
2022/12/17 23:56:10;;;;;;;62.77;41.07;;;;;;;10.79;100.00;99977.28;5050436;28;20193;-60
2022/12/17 23:58:40;;;;;;;63.87;40.63;;;;;;;10.85;100.00;99977.13;5051100;28;20197;-59
